EGE weather

Eagle County Regional Airport
Eagle, Colorado, United States

Public forecast

Using degrees Fahrenheit for public forecast. Weather courtesy of forecast.io.

METAR (pilot weather report)

Retrieved 2019/06/19 19:56 UTC (13 minutes ago):

KEGE 191956Z 25021G26KT 10SM OVC100 21/04 A3008 RMK AO2 PK WND 25028/1937 SLP139 T02110039

TAF (pilot weather forecast)

Retrieved 2019/06/19 18:34 UTC (2 hours ago):

TAF KEGE 191732Z 1918/2018 VRB05KT P6SM FEW100 SCT200 FM191900 23013G23KT P6SM FEW070 FEW200 FM200300 24010KT P6SM FEW070 FEW200 FM200500 10006KT P6SM FEW090 FEW200